createdAt,value
2022-10-05T03:29:09.215Z,17.00
2022-10-05T03:40:14.326Z,10.80
2022-10-05T03:51:14.208Z,10.90
2022-10-05T04:02:13.839Z,9.60
2022-10-05T04:13:13.685Z,9.40
2022-10-05T04:24:13.561Z,8.60
2022-10-05T04:35:13.453Z,9.00
2022-10-05T04:46:13.414Z,11.60
2022-10-05T04:57:13.194Z,11.80
2022-10-05T05:08:13.058Z,14.10
2022-10-05T05:19:12.950Z,12.90
2022-10-05T05:30:12.809Z,9.80
2022-10-05T05:41:12.776Z,13.10
2022-10-05T05:52:12.698Z,10.90
2022-10-05T06:03:12.545Z,17.30
2022-10-05T06:14:12.317Z,16.40
2022-10-05T06:25:12.211Z,24.90
2022-10-05T06:36:12.067Z,23.60
2022-10-05T06:47:11.957Z,19.90
2022-10-05T06:58:11.812Z,15.00
2022-10-05T07:09:11.690Z,19.30
2022-10-05T07:20:11.582Z,21.80
2022-10-05T07:31:11.546Z,12.60
2022-10-05T07:42:11.312Z,14.20
2022-10-05T07:53:11.188Z,11.20
2022-10-05T08:04:11.254Z,11.70
2022-10-05T08:15:10.977Z,9.30
2022-10-05T08:26:10.810Z,7.60
2022-10-05T08:37:10.687Z,9.30
2022-10-05T08:48:10.562Z,7.60
2022-10-05T08:59:10.483Z,9.80
2022-10-05T09:10:10.402Z,6.90
2022-10-05T09:21:10.193Z,8.10
2022-10-05T09:32:15.584Z,8.90
2022-10-05T09:43:09.943Z,7.90
2022-10-05T09:54:09.832Z,7.40
2022-10-05T10:05:09.688Z,7.80
2022-10-05T10:16:09.664Z,16.70
2022-10-05T10:27:09.450Z,5.60
2022-10-05T10:38:09.480Z,6.10
2022-10-05T10:49:09.191Z,5.40
2022-10-05T11:00:09.089Z,5.80
2022-10-05T11:11:08.963Z,4.30
2022-10-05T11:22:08.834Z,4.30
2022-10-05T11:33:08.717Z,3.80
2022-10-05T11:44:08.574Z,4.50
2022-10-05T11:55:11.426Z,3.70
2022-10-05T12:06:08.327Z,10.10
2022-10-05T12:17:08.210Z,2.90
2022-10-05T12:28:08.132Z,5.00
2022-10-05T12:39:07.958Z,5.70
2022-10-05T12:50:07.846Z,3.70
2022-10-05T13:01:07.752Z,5.10
2022-10-05T13:12:07.589Z,4.10
2022-10-05T13:23:07.451Z,3.30
2022-10-05T13:34:07.322Z,3.70
2022-10-05T13:45:07.197Z,2.90
2022-10-05T13:56:07.072Z,5.50
2022-10-05T14:07:06.959Z,5.00
2022-10-05T14:18:06.823Z,4.40
2022-10-05T14:29:06.691Z,3.30
2022-10-05T14:40:06.568Z,3.10
2022-10-05T14:51:06.446Z,5.50
2022-10-05T15:02:06.362Z,4.90
2022-10-05T15:13:11.219Z,3.50
2022-10-05T15:24:06.171Z,2.60
2022-10-05T15:35:05.946Z,3.50
2022-10-05T15:46:05.880Z,4.10
2022-10-05T15:57:05.697Z,6.40
2022-10-05T16:08:05.580Z,5.50
2022-10-05T16:19:05.493Z,7.00
2022-10-05T16:30:05.368Z,7.10
2022-10-05T16:41:05.209Z,4.70
2022-10-05T16:52:05.073Z,4.00
2022-10-05T17:03:04.965Z,3.80
2022-10-05T17:14:04.861Z,4.90
2022-10-05T17:25:04.705Z,5.00
2022-10-05T17:36:04.591Z,5.20
2022-10-05T17:47:04.501Z,4.80
2022-10-05T17:58:04.382Z,4.00
2022-10-05T18:09:04.201Z,3.00
2022-10-05T18:20:04.080Z,4.40
2022-10-05T18:31:04.038Z,2.50
2022-10-05T18:42:03.829Z,2.60
2022-10-05T18:53:03.735Z,5.80
2022-10-05T19:04:03.583Z,1.80
2022-10-05T19:15:03.462Z,3.00
2022-10-05T19:26:03.337Z,3.90
2022-10-05T19:37:03.200Z,2.10
2022-10-05T19:48:03.099Z,1.60
2022-10-05T19:59:02.952Z,2.10
2022-10-05T20:10:02.857Z,4.00
2022-10-05T20:21:02.705Z,1.50
2022-10-05T20:32:02.577Z,3.70
2022-10-05T20:43:02.477Z,6.20
2022-10-05T20:54:02.363Z,1.70
